Time;durP1;ratioP1;P1;durP2;ratioP2;P2;SDS_P1;SDS_P2;PMS_P1;PMS_P2;Temp;Humidity;BMP_temperature;BMP_pressure;BME280_temperature;BME280_humidity;BME280_pressure;Samples;Min_cycle;Max_cycle;Signal;HPM_P1;HPM_P2
2024/01/31 00:01:51;;;;;;;19.57;11.83;;;2.90;99.90;;;;;;5039454;28;20182;-59
2024/01/31 00:04:17;;;;;;;24.30;11.50;;;2.90;99.90;;;;;;5039786;28;20554;-59
2024/01/31 00:06:47;;;;;;;21.70;12.80;;;2.90;99.90;;;;;;5036368;28;20441;-59
2024/01/31 00:09:13;;;;;;;21.50;11.77;;;2.90;99.90;;;;;;5029519;28;20190;-59
2024/01/31 00:11:38;;;;;;;23.37;12.80;;;2.90;99.90;;;;;;5032867;28;20449;-59
2024/01/31 00:14:07;;;;;;;22.83;12.60;;;2.80;99.90;;;;;;5030838;28;20240;-59
2024/01/31 00:16:33;;;;;;;23.57;11.43;;;2.80;99.90;;;;;;5032010;28;20172;-59
2024/01/31 00:18:59;;;;;;;19.10;11.23;;;2.80;99.90;;;;;;5031248;28;20444;-59
2024/01/31 00:21:24;;;;;;;16.90;10.70;;;2.80;99.90;;;;;;5033169;28;21015;-59
2024/01/31 00:23:50;;;;;;;18.40;11.00;;;2.80;99.90;;;;;;5035001;28;20203;-59
2024/01/31 00:26:16;;;;;;;19.57;11.50;;;2.80;99.90;;;;;;5028009;28;20206;-61
2024/01/31 00:28:41;;;;;;;18.97;10.80;;;2.80;99.90;;;;;;5031427;28;20619;-59
2024/01/31 00:31:11;;;;;;;25.20;11.53;;;2.70;99.90;;;;;;5031799;28;20292;-60
2024/01/31 00:33:36;;;;;;;20.37;11.90;;;2.70;99.90;;;;;;5035028;28;20182;-60
2024/01/31 00:36:02;;;;;;;25.23;12.70;;;2.70;99.90;;;;;;5032370;28;20440;-59
2024/01/31 00:38:28;;;;;;;20.93;11.57;;;2.70;99.90;;;;;;5029575;28;20681;-60
2024/01/31 00:40:54;;;;;;;18.87;11.23;;;2.70;99.90;;;;;;5028518;28;20681;-59
2024/01/31 00:43:19;;;;;;;19.97;12.00;;;2.70;99.90;;;;;;5029370;28;20211;-60
2024/01/31 00:45:45;;;;;;;25.47;12.97;;;2.60;99.90;;;;;;5029276;28;20619;-60
2024/01/31 00:48:11;;;;;;;21.40;12.20;;;2.60;99.90;;;;;;5032894;28;20271;-60
2024/01/31 00:50:36;;;;;;;22.87;13.23;;;2.60;99.90;;;;;;5031146;28;20204;-59
2024/01/31 00:53:03;;;;;;;20.93;12.27;;;2.60;99.90;;;;;;5028582;28;20692;-58
2024/01/31 00:55:28;;;;;;;21.43;11.83;;;2.60;99.90;;;;;;5030036;28;20179;-60
2024/01/31 00:57:54;;;;;;;20.53;12.10;;;2.60;99.90;;;;;;5028445;28;20442;-60
2024/01/31 01:00:23;;;;;;;22.67;11.80;;;2.60;99.90;;;;;;5030987;28;20241;-61
2024/01/31 01:02:49;;;;;;;22.27;12.03;;;2.60;99.90;;;;;;5033185;28;20302;-61
2024/01/31 01:05:14;;;;;;;21.80;12.13;;;2.60;99.90;;;;;;5029610;28;20441;-61
2024/01/31 01:07:40;;;;;;;22.20;11.73;;;2.60;99.90;;;;;;5032383;28;20239;-60
2024/01/31 01:10:12;;;;;;;18.90;12.20;;;2.60;99.90;;;;;;5031730;28;20199;-61
2024/01/31 01:12:38;;;;;;;20.00;11.60;;;2.60;99.90;;;;;;5029237;28;20319;-60
2024/01/31 01:15:04;;;;;;;19.83;13.10;;;2.60;99.90;;;;;;5028439;28;20514;-61
2024/01/31 01:17:30;;;;;;;20.83;11.93;;;2.60;99.90;;;;;;5043514;28;20413;-60
2024/01/31 01:19:56;;;;;;;20.20;11.70;;;2.60;99.90;;;;;;5035831;28;20449;-58
2024/01/31 01:22:21;;;;;;;25.07;12.30;;;2.60;99.90;;;;;;5040445;28;20455;-61
2024/01/31 01:24:47;;;;;;;22.90;11.83;;;2.60;99.90;;;;;;5038578;28;20290;-60
2024/01/31 01:27:12;;;;;;;19.63;12.13;;;2.60;99.90;;;;;;5040320;28;20599;-61
2024/01/31 01:29:38;;;;;;;25.40;11.80;;;2.60;99.90;;;;;;5035475;28;20219;-61
2024/01/31 01:32:04;;;;;;;19.67;11.60;;;2.60;99.90;;;;;;5033574;28;20186;-60
2024/01/31 01:34:29;;;;;;;21.53;11.00;;;2.60;99.90;;;;;;5034507;28;20244;-60
2024/01/31 01:36:55;;;;;;;20.77;11.90;;;2.60;99.90;;;;;;5035111;28;20174;-60
2024/01/31 01:39:20;;;;;;;16.30;10.77;;;2.60;99.90;;;;;;5041067;28;20627;-59
2024/01/31 01:41:50;;;;;;;20.03;11.17;;;2.60;99.90;;;;;;5038381;28;20258;-58
2024/01/31 01:44:16;;;;;;;21.70;12.20;;;2.60;99.90;;;;;;5045078;28;20261;-60
2024/01/31 01:46:42;;;;;;;21.50;12.47;;;2.50;99.90;;;;;;5037794;28;20433;-61
2024/01/31 01:49:09;;;;;;;20.37;11.70;;;2.50;99.90;;;;;;5037487;28;20444;-60
2024/01/31 01:51:35;;;;;;;17.70;10.70;;;2.50;99.90;;;;;;5039391;28;20492;-60
2024/01/31 01:54:02;;;;;;;20.97;11.10;;;2.50;99.90;;;;;;5044932;28;20458;-61
2024/01/31 01:56:28;;;;;;;21.57;11.60;;;2.50;99.90;;;;;;5035955;28;20175;-61
2024/01/31 01:58:55;;;;;;;24.63;12.00;;;2.50;99.90;;;;;;5038959;28;20494;-60
2024/01/31 02:01:21;;;;;;;22.27;11.50;;;2.50;99.90;;;;;;5034159;28;20449;-60
2024/01/31 02:03:53;;;;;;;22.83;12.33;;;2.50;99.90;;;;;;5038629;28;20457;-60
2024/01/31 02:06:19;;;;;;;20.80;11.60;;;2.50;99.90;;;;;;5041746;28;20433;-59
2024/01/31 02:08:45;;;;;;;20.73;12.10;;;2.40;99.90;;;;;;5034155;28;20429;-61
2024/01/31 02:11:10;;;;;;;23.50;12.27;;;2.40;99.90;;;;;;5040887;28;20800;-61
2024/01/31 02:13:36;;;;;;;22.83;11.50;;;2.40;99.90;;;;;;5037100;28;20434;-61
2024/01/31 02:16:02;;;;;;;21.10;11.47;;;2.40;99.90;;;;;;5041680;28;20590;-61
2024/01/31 02:18:28;;;;;;;18.50;11.97;;;2.40;99.90;;;;;;5036572;28;20258;-61
2024/01/31 02:20:54;;;;;;;17.63;11.47;;;2.40;99.90;;;;;;5036174;28;20199;-60
2024/01/31 02:23:21;;;;;;;20.23;12.00;;;2.40;99.90;;;;;;5040393;28;20457;-60
2024/01/31 02:25:48;;;;;;;27.57;12.90;;;2.40;99.90;;;;;;5039604;28;20431;-61
2024/01/31 02:28:14;;;;;;;20.13;11.50;;;2.40;99.90;;;;;;5037468;28;20445;-61
2024/01/31 02:30:39;;;;;;;19.37;11.57;;;2.40;99.90;;;;;;5036629;28;20445;-60
2024/01/31 02:33:05;;;;;;;22.17;11.97;;;2.40;99.90;;;;;;5034064;28;20179;-61
2024/01/31 02:35:34;;;;;;;21.80;11.67;;;2.40;99.90;;;;;;5030689;28;20176;-61
2024/01/31 02:38:03;;;;;;;22.50;11.93;;;2.40;99.90;;;;;;5027444;28;20263;-60
2024/01/31 02:40:29;;;;;;;24.63;12.40;;;2.30;99.90;;;;;;5036579;28;20458;-61
2024/01/31 02:42:56;;;;;;;24.53;12.40;;;2.30;99.90;;;;;;5039821;28;20490;-61
2024/01/31 02:45:21;;;;;;;26.43;12.17;;;2.30;99.90;;;;;;5034098;28;20429;-61
2024/01/31 02:47:47;;;;;;;17.77;11.27;;;2.20;99.90;;;;;;5037713;28;20426;-61
2024/01/31 02:50:13;;;;;;;18.53;10.77;;;2.20;99.90;;;;;;5033604;28;20195;-60
2024/01/31 02:52:39;;;;;;;21.43;11.07;;;2.20;99.90;;;;;;5026550;28;20178;-61
2024/01/31 02:55:05;;;;;;;23.43;11.63;;;2.10;99.90;;;;;;5033914;28;20520;-60
2024/01/31 02:57:31;;;;;;;19.70;11.23;;;2.10;99.90;;;;;;5039211;28;20178;-60
2024/01/31 02:59:56;;;;;;;21.67;12.37;;;2.00;99.90;;;;;;5025588;28;20452;-61
2024/01/31 03:02:22;;;;;;;22.07;12.70;;;2.00;99.90;;;;;;5031153;28;20765;-60
2024/01/31 03:04:47;;;;;;;19.93;12.13;;;2.00;99.90;;;;;;5029068;28;20634;-60
2024/01/31 03:07:13;;;;;;;17.80;11.27;;;2.00;99.90;;;;;;5038211;28;20171;-61
2024/01/31 03:09:39;;;;;;;17.23;10.90;;;2.00;99.90;;;;;;5032002;28;20197;-60
2024/01/31 03:12:07;;;;;;;16.97;11.07;;;2.00;99.90;;;;;;5030416;28;20179;-60
2024/01/31 03:14:34;;;;;;;22.90;12.63;;;1.90;99.90;;;;;;5028474;28;20185;-60
2024/01/31 03:17:00;;;;;;;22.33;12.60;;;1.90;99.90;;;;;;5040920;28;20421;-61
2024/01/31 03:19:30;;;;;;;21.20;12.00;;;1.90;99.90;;;;;;5039399;28;20440;-60
2024/01/31 03:21:56;;;;;;;20.60;12.07;;;1.80;99.90;;;;;;5029542;28;20449;-60
2024/01/31 03:24:22;;;;;;;22.00;12.07;;;1.80;99.90;;;;;;5035293;28;20474;-60
2024/01/31 03:26:48;;;;;;;21.80;12.90;;;1.80;99.90;;;;;;5032211;28;20430;-60
2024/01/31 03:29:14;;;;;;;19.60;11.07;;;1.70;99.90;;;;;;5034308;28;20440;-60
2024/01/31 03:31:40;;;;;;;21.30;12.50;;;1.70;99.90;;;;;;5037467;28;20457;-61
2024/01/31 03:34:05;;;;;;;21.07;11.73;;;1.60;99.90;;;;;;5036438;28;20305;-61
2024/01/31 03:36:32;;;;;;;17.80;11.20;;;1.60;99.90;;;;;;5038258;28;20452;-60
2024/01/31 03:39:00;;;;;;;17.77;11.30;;;1.60;99.90;;;;;;5041122;28;20182;-60
2024/01/31 03:41:27;;;;;;;22.37;12.60;;;1.60;99.90;;;;;;5029851;28;20501;-59
2024/01/31 03:43:54;;;;;;;17.70;10.83;;;1.70;99.90;;;;;;5038722;28;20546;-60
2024/01/31 03:46:19;;;;;;;18.57;12.20;;;1.70;99.90;;;;;;5036859;28;21484;-61
2024/01/31 03:48:45;;;;;;;21.40;11.73;;;1.60;99.90;;;;;;5031102;28;20426;-59
2024/01/31 03:51:20;;;;;;;24.47;11.17;;;1.60;99.90;;;;;;5030894;28;20227;-60
2024/01/31 03:53:46;;;;;;;18.57;11.17;;;1.60;99.90;;;;;;5033867;28;20754;-61
2024/01/31 03:56:12;;;;;;;25.43;12.40;;;1.50;99.90;;;;;;5034962;28;20442;-60
2024/01/31 03:58:41;;;;;;;20.00;11.00;;;1.50;99.90;;;;;;5031314;28;20449;-60
2024/01/31 04:01:07;;;;;;;16.83;10.70;;;1.50;99.90;;;;;;5029932;28;20239;-60
2024/01/31 04:03:35;;;;;;;21.47;11.53;;;1.50;99.90;;;;;;5032077;28;20476;-60
2024/01/31 04:06:01;;;;;;;20.40;11.90;;;1.40;99.90;;;;;;5029006;28;20430;-61
2024/01/31 04:08:27;;;;;;;20.93;12.30;;;1.40;99.90;;;;;;5037943;28;20524;-60
2024/01/31 04:10:52;;;;;;;20.63;11.40;;;1.40;99.90;;;;;;5027124;28;20326;-60
2024/01/31 04:13:21;;;;;;;18.30;10.80;;;1.40;99.90;;;;;;5030904;28;20184;-61
2024/01/31 04:15:47;;;;;;;19.50;10.90;;;1.40;99.90;;;;;;5031589;28;20642;-60
2024/01/31 04:18:13;;;;;;;22.40;10.70;;;1.30;99.90;;;;;;5030463;28;20438;-61
2024/01/31 04:20:39;;;;;;;17.10;10.67;;;1.30;99.90;;;;;;5029308;28;20470;-60
2024/01/31 04:23:05;;;;;;;16.83;10.07;;;1.30;99.90;;;;;;5030411;28;20234;-61
2024/01/31 04:25:31;;;;;;;23.77;10.90;;;1.30;99.90;;;;;;5032804;28;20440;-60
2024/01/31 04:27:56;;;;;;;21.90;11.47;;;1.30;99.90;;;;;;5039812;28;21441;-60
2024/01/31 04:30:22;;;;;;;18.97;11.00;;;1.30;99.90;;;;;;5030654;28;20199;-60
2024/01/31 04:32:48;;;;;;;17.43;10.07;;;1.20;99.90;;;;;;5027129;28;20645;-60
2024/01/31 04:35:13;;;;;;;17.40;10.33;;;1.20;99.90;;;;;;5031888;28;20183;-61
2024/01/31 04:37:39;;;;;;;16.40;9.53;;;1.20;99.90;;;;;;5029593;28;20172;-60
2024/01/31 04:40:05;;;;;;;14.97;10.10;;;1.20;99.90;;;;;;5029996;28;20210;-61
2024/01/31 04:42:31;;;;;;;16.63;10.00;;;1.20;99.90;;;;;;5032019;28;20237;-60
2024/01/31 04:44:57;;;;;;;17.07;10.50;;;1.20;99.90;;;;;;5031404;28;20560;-60
2024/01/31 04:47:25;;;;;;;21.43;10.83;;;1.20;99.90;;;;;;5028647;28;20461;-60
2024/01/31 04:49:52;;;;;;;17.93;10.63;;;1.20;99.90;;;;;;5029002;28;20541;-60
2024/01/31 04:52:18;;;;;;;20.10;10.77;;;1.20;99.90;;;;;;5031273;28;20438;-60
2024/01/31 04:54:43;;;;;;;19.77;10.30;;;1.20;99.90;;;;;;5033971;28;20434;-55
2024/01/31 04:57:09;;;;;;;19.90;9.90;;;1.20;99.90;;;;;;5029055;28;20186;-59
2024/01/31 04:59:39;;;;;;;19.90;10.80;;;1.10;99.90;;;;;;5031957;28;20179;-59
2024/01/31 05:02:06;;;;;;;19.40;10.30;;;1.10;99.90;;;;;;5030529;28;20183;-62
2024/01/31 05:04:32;;;;;;;18.97;10.30;;;1.10;99.90;;;;;;5027681;28;20467;-61
2024/01/31 05:06:57;;;;;;;17.33;10.07;;;1.10;99.90;;;;;;5028828;28;20433;-60
2024/01/31 05:09:23;;;;;;;25.90;10.67;;;1.00;99.90;;;;;;5025925;28;20187;-60
2024/01/31 05:11:49;;;;;;;20.43;10.10;;;1.00;99.90;;;;;;5025872;28;20217;-61
2024/01/31 05:14:14;;;;;;;19.10;11.57;;;1.00;99.90;;;;;;5030937;28;20197;-60
2024/01/31 05:16:42;;;;;;;24.70;13.50;;;1.00;99.90;;;;;;5040146;28;20195;-60
2024/01/31 05:19:08;;;;;;;20.07;12.87;;;1.00;99.90;;;;;;5034035;28;20186;-61
2024/01/31 05:21:34;;;;;;;19.63;10.97;;;1.00;99.90;;;;;;5039820;28;20449;-61
2024/01/31 05:24:00;;;;;;;16.97;10.20;;;1.00;99.90;;;;;;5038334;28;20507;-59
2024/01/31 05:26:25;;;;;;;18.00;11.10;;;1.00;99.90;;;;;;5034767;28;20444;-61
2024/01/31 05:28:51;;;;;;;15.77;10.33;;;1.00;99.90;;;;;;5033707;28;20234;-61
2024/01/31 05:31:16;;;;;;;17.57;11.27;;;1.00;99.90;;;;;;5038685;28;20202;-61
2024/01/31 05:33:42;;;;;;;17.60;10.33;;;1.00;99.90;;;;;;5034979;28;20181;-60
2024/01/31 05:36:08;;;;;;;20.83;11.53;;;1.00;99.90;;;;;;5024676;28;20175;-60
2024/01/31 05:38:33;;;;;;;24.50;11.30;;;0.90;99.90;;;;;;5031891;28;20189;-61
2024/01/31 05:40:59;;;;;;;20.63;11.10;;;0.90;99.90;;;;;;5040344;28;20669;-60
2024/01/31 05:43:24;;;;;;;19.40;10.73;;;0.90;99.90;;;;;;5037024;28;20206;-61
2024/01/31 05:45:50;;;;;;;17.80;10.73;;;0.90;99.90;;;;;;5030143;28;20206;-61
2024/01/31 05:48:16;;;;;;;17.93;10.40;;;0.90;99.90;;;;;;5030588;28;20171;-60
2024/01/31 05:50:41;;;;;;;18.20;10.87;;;0.90;99.90;;;;;;5031224;28;20281;-61
2024/01/31 05:53:07;;;;;;;19.43;10.87;;;0.90;99.90;;;;;;5038480;28;20549;-61
2024/01/31 05:55:33;;;;;;;17.73;10.87;;;0.90;99.90;;;;;;5035875;28;20206;-61
2024/01/31 05:57:58;;;;;;;19.90;11.80;;;0.90;99.90;;;;;;5038832;28;20177;-61
2024/01/31 06:00:24;;;;;;;18.53;10.80;;;0.90;99.90;;;;;;5040104;28;20691;-61
2024/01/31 06:02:49;;;;;;;16.90;11.53;;;0.90;99.90;;;;;;5040912;28;20178;-61
2024/01/31 06:05:15;;;;;;;19.07;11.20;;;0.90;99.90;;;;;;5035139;28;20240;-61
2024/01/31 06:07:41;;;;;;;19.20;10.13;;;0.90;99.90;;;;;;5033992;28;20180;-61
2024/01/31 06:10:07;;;;;;;18.23;11.33;;;0.80;99.90;;;;;;5032602;28;20291;-61
2024/01/31 06:12:32;;;;;;;17.00;10.93;;;0.80;99.90;;;;;;5040823;28;20175;-62
2024/01/31 06:14:58;;;;;;;18.40;10.30;;;0.80;99.90;;;;;;5038075;28;20180;-61
2024/01/31 06:17:23;;;;;;;18.73;10.43;;;0.80;99.90;;;;;;5031314;28;20654;-61
2024/01/31 06:19:49;;;;;;;21.43;11.60;;;0.80;99.90;;;;;;5035612;28;20203;-61
2024/01/31 06:22:15;;;;;;;17.47;9.47;;;0.80;99.90;;;;;;5028765;28;20213;-61
2024/01/31 06:24:40;;;;;;;18.83;10.70;;;0.80;99.90;;;;;;5037866;28;20294;-61
2024/01/31 06:27:06;;;;;;;18.53;11.23;;;0.80;99.90;;;;;;5035572;28;20182;-61
2024/01/31 06:29:31;;;;;;;18.50;11.30;;;0.80;99.90;;;;;;5038457;28;20179;-60
2024/01/31 06:32:00;;;;;;;17.43;10.97;;;0.80;99.90;;;;;;5036939;28;20688;-60
2024/01/31 06:34:25;;;;;;;18.77;11.10;;;0.80;99.90;;;;;;5038391;28;20242;-61
2024/01/31 06:36:52;;;;;;;21.23;11.90;;;0.80;99.90;;;;;;5036183;28;20435;-60
2024/01/31 06:39:18;;;;;;;21.23;11.00;;;0.80;99.90;;;;;;5037592;28;20186;-61
2024/01/31 06:41:44;;;;;;;17.57;10.53;;;0.80;99.90;;;;;;5040979;28;20898;-60
2024/01/31 06:44:10;;;;;;;18.77;10.37;;;0.80;99.90;;;;;;5036376;28;20996;-60
2024/01/31 06:46:35;;;;;;;19.93;11.80;;;0.80;99.90;;;;;;5035851;28;20451;-60
2024/01/31 06:49:01;;;;;;;23.50;10.90;;;0.80;99.90;;;;;;5042912;28;20170;-60
2024/01/31 06:51:27;;;;;;;19.30;10.07;;;0.80;99.90;;;;;;5030868;28;21076;-60
2024/01/31 06:53:53;;;;;;;18.47;11.87;;;0.90;99.90;;;;;;5041918;28;20762;-59
2024/01/31 06:56:19;;;;;;;21.67;12.40;;;0.90;99.90;;;;;;5035428;28;20783;-60
2024/01/31 06:58:46;;;;;;;26.10;12.73;;;0.90;99.90;;;;;;5040666;28;20188;-60
2024/01/31 07:01:21;;;;;;;21.97;12.67;;;0.90;99.90;;;;;;5032739;28;20461;-58
2024/01/31 07:03:46;;;;;;;20.80;12.67;;;0.90;99.90;;;;;;5037647;28;20464;-61
2024/01/31 07:06:13;;;;;;;21.30;12.57;;;0.90;99.90;;;;;;5039397;28;20482;-61
2024/01/31 07:08:39;;;;;;;21.97;12.47;;;0.90;99.90;;;;;;5033493;28;20191;-60
2024/01/31 07:11:08;;;;;;;21.80;12.00;;;0.90;99.90;;;;;;5039304;28;20459;-60
2024/01/31 07:13:39;;;;;;;25.40;12.90;;;0.90;99.90;;;;;;5039279;28;20425;-60
2024/01/31 07:16:09;;;;;;;23.90;13.40;;;0.90;99.90;;;;;;5038288;28;20491;-59
2024/01/31 07:18:35;;;;;;;19.23;11.93;;;1.00;99.90;;;;;;5038506;28;20443;-60
2024/01/31 07:21:01;;;;;;;25.67;12.63;;;1.00;99.90;;;;;;5030714;28;20464;-60
2024/01/31 07:23:27;;;;;;;21.23;12.50;;;1.00;99.90;;;;;;5038426;28;20460;-60
2024/01/31 07:25:52;;;;;;;18.20;11.97;;;1.00;99.90;;;;;;5043579;28;20586;-62
2024/01/31 07:28:20;;;;;;;24.03;13.00;;;1.00;99.90;;;;;;5037863;28;20325;-60
2024/01/31 07:30:46;;;;;;;26.40;12.90;;;1.10;99.90;;;;;;5041329;28;20693;-60
2024/01/31 07:33:12;;;;;;;20.40;12.00;;;1.10;99.90;;;;;;5043219;28;20508;-60
2024/01/31 07:35:37;;;;;;;17.77;11.00;;;1.10;99.90;;;;;;5039806;28;20424;-60
2024/01/31 07:38:03;;;;;;;19.50;10.20;;;1.10;99.90;;;;;;5045117;28;20178;-61
2024/01/31 07:40:28;;;;;;;24.67;11.37;;;1.10;99.90;;;;;;5037751;28;20199;-62
2024/01/31 07:42:54;;;;;;;19.77;10.63;;;1.10;99.90;;;;;;5042329;28;20243;-60
2024/01/31 07:45:20;;;;;;;16.80;10.20;;;1.10;99.90;;;;;;5037884;28;20171;-60
2024/01/31 07:47:46;;;;;;;18.03;10.77;;;1.10;99.90;;;;;;5042377;28;20181;-60
2024/01/31 07:50:11;;;;;;;26.53;12.03;;;1.20;99.90;;;;;;5044816;28;20459;-61
2024/01/31 07:52:37;;;;;;;18.63;9.97;;;1.20;99.90;;;;;;5045666;28;20174;-61
2024/01/31 07:55:05;;;;;;;18.63;11.73;;;1.20;99.90;;;;;;5045129;28;20712;-61
2024/01/31 07:57:31;;;;;;;19.27;11.13;;;1.20;99.90;;;;;;5040747;28;20229;-60
2024/01/31 07:59:56;;;;;;;18.30;11.90;;;1.20;99.90;;;;;;5040037;28;20457;-60
2024/01/31 08:02:22;;;;;;;24.20;12.90;;;1.30;99.90;;;;;;5037784;28;20180;-60
2024/01/31 08:04:47;;;;;;;22.07;13.07;;;1.30;99.90;;;;;;5040386;28;20203;-60
2024/01/31 08:07:13;;;;;;;20.57;11.53;;;1.40;99.90;;;;;;5041214;28;20642;-61
2024/01/31 08:09:39;;;;;;;19.00;10.80;;;1.40;99.90;;;;;;5038060;28;20185;-61
2024/01/31 08:12:06;;;;;;;23.80;12.33;;;1.40;99.90;;;;;;5033538;28;20693;-61
2024/01/31 08:14:32;;;;;;;18.57;11.00;;;1.40;99.90;;;;;;5040622;28;20446;-64
2024/01/31 08:16:58;;;;;;;23.73;11.90;;;1.50;99.90;;;;;;5031513;28;20429;-60
2024/01/31 08:19:23;;;;;;;20.57;13.20;;;1.50;99.90;;;;;;5033492;28;20184;-60
2024/01/31 08:21:49;;;;;;;22.30;13.30;;;1.50;99.90;;;;;;5036717;28;20685;-61
2024/01/31 08:24:15;;;;;;;22.97;12.23;;;1.60;99.90;;;;;;5042255;28;20253;-61
2024/01/31 08:26:40;;;;;;;24.33;12.70;;;1.60;99.90;;;;;;5039617;28;20698;-61
2024/01/31 08:29:06;;;;;;;26.17;14.00;;;1.60;99.90;;;;;;5033894;28;20179;-62
2024/01/31 08:31:31;;;;;;;28.97;14.03;;;1.60;99.90;;;;;;5038735;28;20206;-61
2024/01/31 08:33:57;;;;;;;25.30;13.27;;;1.60;99.90;;;;;;5044637;28;20686;-61
2024/01/31 08:36:23;;;;;;;20.60;11.90;;;1.60;99.90;;;;;;5032394;28;20188;-60
2024/01/31 08:38:48;;;;;;;23.80;12.80;;;1.70;99.90;;;;;;5042001;28;20594;-62
2024/01/31 08:41:14;;;;;;;20.07;12.30;;;1.70;99.90;;;;;;5036876;28;20219;-62
2024/01/31 08:43:39;;;;;;;22.10;12.33;;;1.70;99.90;;;;;;5036468;28;20203;-60
2024/01/31 08:46:05;;;;;;;21.43;12.33;;;1.70;99.90;;;;;;5037814;28;20191;-60
2024/01/31 08:48:31;;;;;;;19.57;12.20;;;1.70;99.90;;;;;;5040068;28;20171;-61
2024/01/31 08:50:58;;;;;;;30.50;15.00;;;1.70;99.90;;;;;;5039721;28;20708;-61
2024/01/31 08:53:24;;;;;;;21.80;13.27;;;1.80;99.90;;;;;;5037813;28;20465;-61
2024/01/31 08:55:49;;;;;;;26.60;13.60;;;1.80;99.90;;;;;;5034208;28;20871;-61
2024/01/31 08:58:15;;;;;;;23.30;13.53;;;1.80;99.90;;;;;;5036760;28;20190;-61
2024/01/31 09:00:40;;;;;;;23.93;12.80;;;1.90;99.90;;;;;;5044208;28;20286;-61
2024/01/31 09:03:06;;;;;;;23.93;13.53;;;2.00;99.90;;;;;;5031823;28;20172;-60
2024/01/31 09:05:32;;;;;;;21.37;12.17;;;2.00;99.90;;;;;;5038368;28;20180;-61
2024/01/31 09:07:59;;;;;;;19.20;12.40;;;2.10;99.90;;;;;;5036663;28;20180;-61
2024/01/31 09:10:26;;;;;;;25.20;12.97;;;2.10;99.90;;;;;;5041224;28;20210;-60
2024/01/31 09:12:53;;;;;;;26.23;13.13;;;2.20;99.90;;;;;;5037986;28;20437;-61
2024/01/31 09:15:19;;;;;;;23.23;14.00;;;2.30;99.90;;;;;;5031208;28;20469;-60
2024/01/31 09:17:46;;;;;;;22.60;13.70;;;2.40;99.90;;;;;;5038346;28;20424;-61
2024/01/31 09:20:12;;;;;;;19.37;12.43;;;2.50;99.90;;;;;;5039906;28;20696;-61
2024/01/31 09:22:38;;;;;;;19.53;12.53;;;2.60;99.90;;;;;;5035767;28;20495;-60
2024/01/31 09:25:05;;;;;;;21.00;13.40;;;2.70;99.90;;;;;;5039745;28;20198;-60
2024/01/31 09:27:31;;;;;;;26.10;12.90;;;2.70;99.90;;;;;;5036336;28;20472;-61
2024/01/31 09:29:56;;;;;;;25.60;13.40;;;2.80;99.90;;;;;;5041965;28;20477;-60
2024/01/31 09:32:22;;;;;;;21.13;13.07;;;2.80;99.90;;;;;;5040034;28;20236;-60
2024/01/31 09:34:48;;;;;;;23.33;13.03;;;2.90;99.90;;;;;;5041958;28;20172;-60
2024/01/31 09:37:13;;;;;;;26.43;12.77;;;2.90;99.90;;;;;;5037939;28;20183;-60
2024/01/31 09:39:39;;;;;;;24.10;14.00;;;3.00;99.90;;;;;;5041899;28;20188;-61
2024/01/31 09:42:05;;;;;;;26.13;14.90;;;3.10;99.90;;;;;;5037152;28;20203;-61
2024/01/31 09:44:32;;;;;;;25.13;15.07;;;3.10;99.90;;;;;;5035323;28;20616;-61
2024/01/31 09:47:00;;;;;;;27.63;14.67;;;3.20;99.90;;;;;;5035177;28;20930;-61
2024/01/31 09:49:25;;;;;;;29.17;14.03;;;3.30;99.90;;;;;;5035462;28;20434;-60
2024/01/31 09:52:00;;;;;;;23.97;13.83;;;3.40;99.90;;;;;;5038284;28;20426;-61
2024/01/31 09:54:26;;;;;;;23.10;12.60;;;3.40;99.90;;;;;;5039925;28;20237;-60
2024/01/31 09:56:54;;;;;;;20.33;13.30;;;3.60;99.90;;;;;;5036035;28;20506;-59
2024/01/31 09:59:20;;;;;;;21.67;12.90;;;3.70;99.90;;;;;;5039826;28;20174;-60
2024/01/31 10:01:47;;;;;;;22.73;12.70;;;3.80;99.90;;;;;;5041193;28;22524;-60
2024/01/31 10:04:14;;;;;;;25.83;14.77;;;3.90;99.90;;;;;;5042039;28;20473;-59
2024/01/31 10:06:40;;;;;;;18.87;11.93;;;3.90;99.90;;;;;;5042850;28;20429;-60
2024/01/31 10:09:06;;;;;;;17.67;11.23;;;3.90;99.90;;;;;;5040650;28;20409;-60
2024/01/31 10:11:32;;;;;;;26.33;13.60;;;3.90;99.90;;;;;;5042113;28;20186;-59
2024/01/31 10:13:58;;;;;;;19.10;12.47;;;3.80;99.90;;;;;;5040277;28;20437;-58
2024/01/31 10:16:24;;;;;;;19.33;11.53;;;3.80;99.90;;;;;;5033670;28;20262;-59
2024/01/31 10:18:52;;;;;;;21.07;12.30;;;3.90;99.90;;;;;;5035510;28;20183;-60
2024/01/31 10:21:19;;;;;;;20.00;12.20;;;3.90;99.90;;;;;;5036539;28;20564;-58
2024/01/31 10:23:56;;;;;;;23.27;12.80;;;3.90;99.90;;;;;;5039401;28;20460;-59
2024/01/31 10:26:22;;;;;;;25.30;13.87;;;4.00;99.90;;;;;;5039314;28;20891;-61
2024/01/31 10:28:48;;;;;;;24.57;14.33;;;4.00;99.90;;;;;;5038778;28;20425;-60
2024/01/31 10:31:14;;;;;;;33.53;16.30;;;4.10;99.90;;;;;;5038513;28;20845;-61
2024/01/31 10:33:40;;;;;;;31.90;16.70;;;4.20;99.90;;;;;;5038602;28;20191;-60
2024/01/31 10:36:08;;;;;;;29.00;14.60;;;4.40;99.90;;;;;;5033211;28;20426;-60
2024/01/31 10:38:33;;;;;;;32.17;14.67;;;4.50;99.90;;;;;;5033355;28;20827;-60
2024/01/31 10:41:00;;;;;;;28.40;15.37;;;4.70;99.90;;;;;;5033915;28;20449;-60
2024/01/31 10:43:27;;;;;;;28.30;15.47;;;4.80;99.90;;;;;;5036774;28;20461;-61
2024/01/31 10:45:52;;;;;;;25.93;15.80;;;5.00;99.90;;;;;;5038231;28;20966;-60
2024/01/31 10:48:18;;;;;;;24.60;14.40;;;5.20;99.90;;;;;;5033424;28;20434;-61
2024/01/31 10:50:44;;;;;;;22.43;13.67;;;5.40;99.90;;;;;;5038390;28;20219;-61
2024/01/31 10:53:11;;;;;;;22.23;14.07;;;5.60;99.90;;;;;;5035921;28;20199;-60
2024/01/31 10:55:38;;;;;;;23.97;12.57;;;5.80;99.90;;;;;;5042732;28;20320;-60
2024/01/31 10:58:04;;;;;;;26.40;13.13;;;6.00;99.90;;;;;;5038039;28;20428;-60
2024/01/31 11:00:30;;;;;;;25.90;15.50;;;6.10;99.90;;;;;;5036828;28;20560;-60
2024/01/31 11:02:57;;;;;;;28.60;14.87;;;6.30;99.90;;;;;;5039100;28;20694;-60
2024/01/31 11:05:24;;;;;;;36.60;16.70;;;6.50;99.90;;;;;;5038252;28;20251;-60
2024/01/31 11:07:50;;;;;;;26.93;15.53;;;6.60;99.90;;;;;;5044446;28;20427;-60
2024/01/31 11:10:22;;;;;;;28.37;15.37;;;6.70;99.90;;;;;;5041231;28;20987;-60
2024/01/31 11:12:58;;;;;;;25.80;15.17;;;6.80;99.90;;;;;;5034727;28;20425;-59
2024/01/31 11:15:34;;;;;;;32.13;16.90;;;6.90;99.90;;;;;;5030561;28;20485;-60
2024/01/31 11:18:08;;;;;;;26.73;16.40;;;7.00;99.90;;;;;;5033963;28;20414;-60
2024/01/31 11:20:45;;;;;;;29.13;15.13;;;7.10;99.90;;;;;;5039325;28;20450;-60
2024/01/31 11:23:19;;;;;;;27.53;16.10;;;7.20;99.90;;;;;;5035561;28;20901;-60
2024/01/31 11:25:45;;;;;;;24.73;14.40;;;7.40;99.90;;;;;;5033486;28;20544;-64
2024/01/31 11:28:11;;;;;;;26.07;14.63;;;7.60;99.90;;;;;;5033973;28;20501;-59
2024/01/31 11:30:39;;;;;;;21.53;14.30;;;7.80;97.90;;;;;;5039157;28;20191;-58
2024/01/31 11:33:05;;;;;;;30.80;16.20;;;8.00;97.20;;;;;;5034754;28;21149;-57
2024/01/31 11:35:31;;;;;;;21.30;14.23;;;8.30;98.60;;;;;;5037382;28;20457;-57
2024/01/31 11:37:57;;;;;;;31.00;16.20;;;8.50;95.90;;;;;;5038458;28;20206;-57
2024/01/31 11:40:23;;;;;;;22.97;15.23;;;8.70;93.60;;;;;;5036160;28;20999;-59
2024/01/31 11:42:50;;;;;;;29.00;14.97;;;9.00;92.30;;;;;;5036276;28;20920;-60
2024/01/31 11:45:16;;;;;;;20.33;13.33;;;9.20;91.70;;;;;;5032253;28;20839;-59
2024/01/31 11:47:42;;;;;;;20.10;12.60;;;9.40;88.00;;;;;;5040265;28;20436;-60
2024/01/31 11:50:08;;;;;;;21.77;13.87;;;9.50;85.60;;;;;;5029240;28;20198;-60
2024/01/31 11:52:34;;;;;;;24.97;13.70;;;9.70;83.80;;;;;;5028292;28;20422;-59
2024/01/31 11:55:00;;;;;;;24.07;12.40;;;9.90;82.00;;;;;;5029576;28;20937;-59
2024/01/31 11:57:28;;;;;;;19.40;9.73;;;10.00;77.70;;;;;;5035739;28;20764;-60
2024/01/31 11:59:54;;;;;;;16.40;9.33;;;10.10;73.30;;;;;;5030638;28;20967;-61
2024/01/31 12:02:20;;;;;;;17.10;9.13;;;10.30;73.60;;;;;;5030615;28;20469;-59
2024/01/31 12:04:54;;;;;;;15.03;9.10;;;10.40;71.30;;;;;;5034481;28;20341;-59
2024/01/31 12:07:20;;;;;;;17.20;9.73;;;10.60;72.00;;;;;;5038132;28;20462;-59
2024/01/31 12:09:46;;;;;;;11.47;7.00;;;10.80;71.10;;;;;;5033718;28;21249;-59
2024/01/31 12:12:12;;;;;;;10.60;7.90;;;11.00;69.00;;;;;;5037154;28;20699;-60
2024/01/31 12:14:39;;;;;;;19.13;9.70;;;11.10;69.00;;;;;;5037244;28;20422;-60
2024/01/31 12:17:24;;;;;;;22.90;9.00;;;11.20;68.50;;;;;;5031339;28;20496;-61
2024/01/31 12:20:01;;;;;;;10.27;7.00;;;11.40;67.40;;;;;;5033631;28;21067;-60
2024/01/31 12:22:27;;;;;;;10.27;6.93;;;11.50;66.60;;;;;;5035367;28;20492;-60
2024/01/31 12:24:52;;;;;;;14.83;7.10;;;11.70;66.10;;;;;;5041699;28;20457;-59
2024/01/31 12:27:18;;;;;;;12.20;6.70;;;11.80;65.60;;;;;;5032927;28;20221;-62
2024/01/31 12:29:46;;;;;;;7.50;5.30;;;11.80;65.60;;;;;;5030722;28;20176;-61
2024/01/31 12:32:12;;;;;;;7.63;6.00;;;11.90;64.70;;;;;;5032107;28;20194;-61
2024/01/31 12:34:37;;;;;;;12.47;7.00;;;11.90;64.50;;;;;;5035244;28;20425;-61